createdAt,value
2018-08-31T00:02:15.820Z,92.50
2018-08-31T00:04:55.654Z,92.40
2018-08-31T00:07:43.185Z,92.40
2018-08-31T00:12:31.640Z,92.50
2018-08-31T00:15:00.004Z,92.50
2018-08-31T00:17:28.373Z,92.30
2018-08-31T00:19:56.759Z,92.30
2018-08-31T00:22:25.142Z,92.30
2018-08-31T00:25:21.171Z,92.30
2018-08-31T00:28:00.832Z,92.30
2018-08-31T00:30:40.633Z,92.30
2018-08-31T00:33:33.968Z,92.40
2018-08-31T00:39:16.984Z,92.50
2018-08-31T00:44:02.814Z,92.50
2018-08-31T00:46:31.184Z,92.60
2018-08-31T00:48:59.538Z,92.70
2018-08-31T00:51:27.904Z,92.80
2018-08-31T00:53:56.260Z,92.80
2018-08-31T00:56:24.623Z,92.90
2018-08-31T00:58:52.952Z,93.00
2018-08-31T01:01:21.329Z,93.40
2018-08-31T01:03:49.660Z,93.20
2018-08-31T01:06:18.024Z,93.30
2018-08-31T01:08:46.337Z,93.40
2018-08-31T01:11:14.727Z,93.60
2018-08-31T01:13:43.040Z,93.60
2018-08-31T01:16:11.407Z,93.60
2018-08-31T01:18:39.768Z,93.50
2018-08-31T01:21:08.134Z,93.20
2018-08-31T01:23:36.520Z,92.80
2018-08-31T01:26:04.947Z,92.50
2018-08-31T01:28:33.306Z,92.40
2018-08-31T01:31:01.712Z,92.40
2018-08-31T01:33:30.053Z,92.30
2018-08-31T01:35:58.416Z,92.20
2018-08-31T01:38:26.772Z,92.20
2018-08-31T01:40:55.175Z,92.30
2018-08-31T01:43:23.519Z,92.40
2018-08-31T01:45:51.913Z,92.20
2018-08-31T01:48:20.268Z,92.20
2018-08-31T01:50:53.947Z,92.30
2018-08-31T01:53:23.707Z,92.30
2018-08-31T01:55:52.092Z,92.30
2018-08-31T01:58:20.444Z,92.40
2018-08-31T02:00:48.855Z,92.30
2018-08-31T02:03:17.209Z,92.40
2018-08-31T02:05:45.608Z,92.20
2018-08-31T02:08:13.956Z,91.60
2018-08-31T02:10:42.337Z,91.50
2018-08-31T02:13:10.701Z,91.40
2018-08-31T02:15:39.081Z,91.40
2018-08-31T02:18:07.456Z,91.30
2018-08-31T02:20:35.831Z,91.10
2018-08-31T02:23:04.228Z,91.00
2018-08-31T02:25:32.615Z,91.10
2018-08-31T02:28:00.935Z,91.10
2018-08-31T02:30:29.261Z,91.20
2018-08-31T02:32:57.620Z,91.10
2018-08-31T02:35:25.959Z,91.10
2018-08-31T02:37:54.323Z,91.20
2018-08-31T02:40:22.628Z,91.20
2018-08-31T02:42:50.978Z,91.10
2018-08-31T02:45:19.292Z,91.00
2018-08-31T02:47:47.737Z,91.00
2018-08-31T02:50:16.245Z,91.00
2018-08-31T02:52:44.597Z,91.00
2018-08-31T02:55:12.927Z,90.90
2018-08-31T02:57:41.300Z,90.90
2018-08-31T03:00:09.675Z,90.70
2018-08-31T03:02:38.039Z,90.70
2018-08-31T03:05:06.397Z,90.60
2018-08-31T03:07:34.788Z,90.50
2018-08-31T03:10:03.137Z,90.50
2018-08-31T03:12:31.504Z,90.50
2018-08-31T03:14:59.824Z,90.40
2018-08-31T03:17:28.201Z,90.40
2018-08-31T03:19:56.532Z,90.80
2018-08-31T03:22:24.928Z,90.40
2018-08-31T03:24:53.248Z,90.40
2018-08-31T03:27:21.608Z,90.20
2018-08-31T03:29:49.928Z,90.10
2018-08-31T03:32:18.283Z,90.10
2018-08-31T03:34:46.615Z,90.00
2018-08-31T03:37:15.056Z,89.70
2018-08-31T03:39:43.376Z,89.00
2018-08-31T03:42:11.743Z,88.70
2018-08-31T03:44:40.072Z,88.70
2018-08-31T03:47:08.420Z,88.50
2018-08-31T03:49:36.744Z,89.60
2018-08-31T03:52:05.110Z,89.20
2018-08-31T03:54:33.432Z,89.30
2018-08-31T03:57:01.828Z,89.30
2018-08-31T03:59:30.139Z,89.30
2018-08-31T04:01:58.490Z,89.30
2018-08-31T04:04:26.811Z,88.80
2018-08-31T04:06:55.154Z,88.50
2018-08-31T04:09:23.468Z,88.60
2018-08-31T04:11:51.827Z,88.50
2018-08-31T04:14:20.140Z,88.50
2018-08-31T04:16:48.497Z,88.40
2018-08-31T04:19:17.699Z,88.60
2018-08-31T04:21:46.584Z,88.60
2018-08-31T04:24:16.120Z,88.50
2018-08-31T04:26:45.080Z,88.50
2018-08-31T04:29:13.468Z,88.30
2018-08-31T04:31:41.924Z,88.30
2018-08-31T04:34:11.512Z,88.20
2018-08-31T04:36:40.373Z,88.50
2018-08-31T04:39:10.908Z,88.60
2018-08-31T04:41:39.256Z,88.60
2018-08-31T04:44:07.660Z,88.70
2018-08-31T04:46:36.048Z,88.80
2018-08-31T04:49:04.452Z,88.50
2018-08-31T04:51:32.840Z,88.40
2018-08-31T04:54:01.260Z,88.20
2018-08-31T04:56:29.668Z,88.10
2018-08-31T04:58:58.067Z,88.30
2018-08-31T05:01:26.429Z,88.50
2018-08-31T05:03:54.889Z,88.50
2018-08-31T05:06:23.280Z,88.50
2018-08-31T05:08:51.664Z,88.20
2018-08-31T05:11:20.831Z,88.20
2018-08-31T05:13:49.220Z,90.00
2018-08-31T05:16:17.559Z,89.00
2018-08-31T05:18:45.935Z,88.50
2018-08-31T05:21:14.267Z,88.60
2018-08-31T05:23:43.913Z,88.80
2018-08-31T05:26:12.372Z,89.00
2018-08-31T05:28:40.746Z,89.00
2018-08-31T05:31:09.051Z,89.30
2018-08-31T05:33:37.424Z,89.10
2018-08-31T05:36:05.763Z,89.10
2018-08-31T05:38:34.119Z,89.10
2018-08-31T05:41:02.443Z,89.20
2018-08-31T05:43:30.803Z,89.20
2018-08-31T05:45:59.143Z,89.90
2018-08-31T05:48:27.514Z,89.10
2018-08-31T05:50:55.842Z,88.90
2018-08-31T05:53:24.221Z,88.90
2018-08-31T05:55:52.544Z,88.70
2018-08-31T05:58:20.859Z,88.40
2018-08-31T06:00:49.208Z,88.40
2018-08-31T06:03:17.544Z,88.30
2018-08-31T06:05:45.883Z,87.50
2018-08-31T06:08:14.262Z,87.80
2018-08-31T06:10:42.611Z,87.60
2018-08-31T06:13:11.191Z,88.10
2018-08-31T06:15:39.544Z,88.40
2018-08-31T06:18:08.539Z,88.70
2018-08-31T06:20:36.896Z,88.50
2018-08-31T06:23:05.289Z,88.70
2018-08-31T06:25:33.745Z,88.70
2018-08-31T06:28:02.115Z,88.50
2018-08-31T06:30:30.505Z,88.60
2018-08-31T06:32:58.888Z,89.00
2018-08-31T06:35:27.288Z,89.40
2018-08-31T06:37:55.653Z,89.90
2018-08-31T06:40:24.028Z,90.10
2018-08-31T06:42:52.373Z,90.20
2018-08-31T06:45:20.748Z,90.60
2018-08-31T06:47:49.089Z,90.70
2018-08-31T06:50:17.464Z,90.30
2018-08-31T06:52:45.804Z,90.50
2018-08-31T06:55:14.203Z,90.50
2018-08-31T06:57:42.553Z,90.70
2018-08-31T07:00:10.969Z,91.00
2018-08-31T07:02:39.309Z,91.20
2018-08-31T07:05:08.115Z,91.40
2018-08-31T07:07:36.878Z,91.30
2018-08-31T07:10:05.301Z,91.30
2018-08-31T07:12:33.744Z,91.70
2018-08-31T07:15:02.095Z,92.00
2018-08-31T07:17:30.447Z,92.60
2018-08-31T07:19:58.896Z,92.50
2018-08-31T07:22:27.279Z,92.70
2018-08-31T07:24:55.683Z,92.60
2018-08-31T07:27:24.108Z,92.80
2018-08-31T07:29:52.483Z,93.30
2018-08-31T07:32:20.884Z,93.90
2018-08-31T07:34:49.264Z,94.70
2018-08-31T07:37:17.644Z,95.30
2018-08-31T07:39:45.977Z,95.50
2018-08-31T07:42:14.468Z,95.80
2018-08-31T07:44:42.785Z,96.50
2018-08-31T07:47:11.161Z,97.10
2018-08-31T07:49:39.496Z,97.40
2018-08-31T07:52:07.867Z,98.10
2018-08-31T07:54:36.229Z,98.50
2018-08-31T07:57:04.610Z,99.20
2018-08-31T07:59:32.952Z,99.80
2018-08-31T08:02:01.357Z,99.90
2018-08-31T08:04:29.705Z,99.90
2018-08-31T08:06:58.072Z,99.90
2018-08-31T08:09:26.413Z,99.90
2018-08-31T08:11:54.795Z,99.90
2018-08-31T08:14:23.148Z,99.90
2018-08-31T08:16:51.528Z,99.90
2018-08-31T08:19:19.946Z,99.90
2018-08-31T08:21:48.336Z,99.90
2018-08-31T08:24:16.699Z,99.90
2018-08-31T08:26:45.089Z,99.90
2018-08-31T08:29:13.408Z,99.90
2018-08-31T08:31:41.773Z,99.90
2018-08-31T08:34:10.080Z,99.90
2018-08-31T08:36:38.455Z,99.90
2018-08-31T08:39:07.627Z,99.90
2018-08-31T08:41:35.978Z,99.90
2018-08-31T08:44:04.700Z,99.90
2018-08-31T08:46:33.044Z,99.90
2018-08-31T08:49:01.392Z,99.90
2018-08-31T08:51:29.744Z,99.90
2018-08-31T08:53:58.062Z,99.90
2018-08-31T08:56:26.423Z,99.90
2018-08-31T08:58:54.742Z,99.90
2018-08-31T09:01:23.143Z,99.90
2018-08-31T09:03:51.432Z,99.90
2018-08-31T09:06:19.823Z,99.90
2018-08-31T09:08:48.146Z,99.90
2018-08-31T09:11:16.496Z,99.90
2018-08-31T09:13:44.812Z,99.90
2018-08-31T09:16:13.141Z,99.90
2018-08-31T09:18:41.504Z,99.90
2018-08-31T09:21:09.836Z,99.90
2018-08-31T09:23:38.261Z,99.90
2018-08-31T09:26:09.426Z,99.90
2018-08-31T09:28:37.796Z,99.90
2018-08-31T09:31:10.635Z,99.90
2018-08-31T09:33:39.011Z,99.90
2018-08-31T09:36:07.379Z,99.90
2018-08-31T09:38:35.772Z,99.90
2018-08-31T09:41:04.500Z,99.90
2018-08-31T09:43:32.876Z,99.90
2018-08-31T09:46:01.232Z,99.90
2018-08-31T09:48:29.609Z,99.90
2018-08-31T09:50:57.952Z,99.90
2018-08-31T09:53:26.408Z,99.90
2018-08-31T09:55:54.773Z,99.90
2018-08-31T09:58:23.214Z,99.90
2018-08-31T10:00:59.611Z,99.90
2018-08-31T10:03:28.007Z,99.90
2018-08-31T10:05:56.896Z,99.90
2018-08-31T10:08:27.471Z,99.90
2018-08-31T10:10:55.941Z,99.90
2018-08-31T10:13:24.872Z,99.90
2018-08-31T10:15:53.229Z,99.90
2018-08-31T10:18:21.903Z,99.90
2018-08-31T10:20:50.253Z,99.90
2018-08-31T10:23:18.672Z,99.90
2018-08-31T10:25:47.016Z,99.90
2018-08-31T10:28:15.427Z,99.90
2018-08-31T10:30:43.780Z,99.90
2018-08-31T10:33:12.112Z,99.90
2018-08-31T10:35:40.495Z,99.90
2018-08-31T10:38:08.892Z,99.90
2018-08-31T10:40:37.235Z,99.90
2018-08-31T10:43:05.744Z,99.90
2018-08-31T10:45:34.102Z,99.90
2018-08-31T10:48:02.507Z,99.90
2018-08-31T10:50:30.863Z,99.90
2018-08-31T10:52:59.251Z,99.90
2018-08-31T10:55:27.585Z,99.90
2018-08-31T10:57:55.968Z,99.90
2018-08-31T11:00:24.315Z,99.90
2018-08-31T11:02:52.714Z,99.90
2018-08-31T11:05:21.052Z,99.90
2018-08-31T11:07:49.436Z,99.90
2018-08-31T11:10:17.828Z,99.90
2018-08-31T11:12:46.341Z,99.90
2018-08-31T11:15:14.739Z,99.90
2018-08-31T11:17:42.992Z,99.90
2018-08-31T11:20:11.403Z,99.90
2018-08-31T11:22:39.788Z,99.90
2018-08-31T11:25:08.200Z,99.90
2018-08-31T11:27:36.624Z,99.90
2018-08-31T11:30:05.368Z,99.90
2018-08-31T11:32:33.731Z,99.90
2018-08-31T11:35:02.160Z,99.90
2018-08-31T11:37:30.520Z,99.90
2018-08-31T11:39:58.919Z,99.90
2018-08-31T11:42:27.263Z,99.90
2018-08-31T11:44:55.685Z,99.90
2018-08-31T11:47:24.063Z,99.90
2018-08-31T11:49:52.447Z,99.90
2018-08-31T11:52:20.882Z,99.90
2018-08-31T11:54:49.263Z,99.90
2018-08-31T11:57:17.665Z,99.90
2018-08-31T11:59:46.056Z,99.90
2018-08-31T12:02:14.407Z,99.90
2018-08-31T12:04:42.790Z,99.90
2018-08-31T12:07:11.169Z,99.90
2018-08-31T12:09:39.548Z,99.90
2018-08-31T12:12:07.905Z,99.90
2018-08-31T12:14:36.297Z,99.90
2018-08-31T12:17:04.651Z,99.90
2018-08-31T12:19:33.032Z,99.90
2018-08-31T12:22:01.420Z,99.90
2018-08-31T12:24:29.843Z,99.90
2018-08-31T12:26:58.187Z,99.90
2018-08-31T12:29:26.569Z,99.90
2018-08-31T12:31:54.928Z,99.90
2018-08-31T12:34:23.323Z,99.90
2018-08-31T12:36:51.673Z,99.90
2018-08-31T12:39:20.063Z,99.90
2018-08-31T12:41:48.405Z,99.90
2018-08-31T12:44:16.888Z,99.90
2018-08-31T12:46:45.243Z,99.90
2018-08-31T12:49:13.655Z,99.90
2018-08-31T12:51:42.008Z,99.90
2018-08-31T12:54:10.396Z,99.90
2018-08-31T12:56:38.749Z,99.90
2018-08-31T12:59:07.234Z,99.90
2018-08-31T13:01:35.607Z,99.90
2018-08-31T13:04:03.968Z,99.90
2018-08-31T13:06:32.372Z,99.90
2018-08-31T13:09:00.725Z,99.90
2018-08-31T13:11:29.104Z,99.90
2018-08-31T13:13:57.668Z,99.90
2018-08-31T13:16:26.043Z,99.90
2018-08-31T13:18:54.372Z,99.90
2018-08-31T13:21:22.757Z,99.90
2018-08-31T13:23:51.158Z,99.90
2018-08-31T13:26:19.563Z,99.90
2018-08-31T13:28:47.902Z,99.90
2018-08-31T13:31:16.360Z,99.90
2018-08-31T13:33:44.657Z,99.90
2018-08-31T13:36:13.027Z,99.90
2018-08-31T13:38:41.380Z,99.90
2018-08-31T13:41:09.774Z,99.90
2018-08-31T13:43:38.115Z,99.90
2018-08-31T13:46:06.504Z,99.90
2018-08-31T13:48:34.843Z,99.90
2018-08-31T13:51:03.218Z,99.90
2018-08-31T13:53:31.571Z,99.90
2018-08-31T13:55:59.959Z,99.90
2018-08-31T13:58:28.389Z,99.90
2018-08-31T14:00:56.738Z,99.90
2018-08-31T14:03:25.081Z,99.90
2018-08-31T14:05:53.460Z,99.90
2018-08-31T14:08:21.821Z,99.90
2018-08-31T14:10:50.201Z,99.90
2018-08-31T14:13:18.548Z,99.90
2018-08-31T14:15:46.940Z,99.90
2018-08-31T14:18:15.285Z,99.90
2018-08-31T14:20:43.655Z,99.90
2018-08-31T14:23:12.033Z,99.90
2018-08-31T14:25:40.448Z,99.90
2018-08-31T14:28:09.064Z,99.90
2018-08-31T14:30:37.445Z,99.90
2018-08-31T14:33:05.890Z,99.90
2018-08-31T14:35:34.295Z,99.90
2018-08-31T14:38:02.655Z,99.90
2018-08-31T14:40:31.044Z,99.90
2018-08-31T14:42:59.397Z,99.90
2018-08-31T14:45:27.799Z,99.90
2018-08-31T14:47:56.132Z,99.90
2018-08-31T14:50:24.524Z,99.90
2018-08-31T14:52:52.863Z,99.90
2018-08-31T14:55:21.269Z,99.90
2018-08-31T14:57:49.644Z,99.90
2018-08-31T15:00:18.037Z,99.90
2018-08-31T15:02:46.425Z,99.90
2018-08-31T15:05:14.769Z,99.90
2018-08-31T15:07:43.176Z,99.90
2018-08-31T15:10:13.526Z,99.90
2018-08-31T15:12:42.267Z,99.90
2018-08-31T15:15:10.601Z,99.90
2018-08-31T15:17:39.260Z,99.90
2018-08-31T15:20:07.609Z,99.90
2018-08-31T15:22:36.980Z,99.90
2018-08-31T15:25:05.483Z,99.90
2018-08-31T15:27:33.812Z,99.90
2018-08-31T15:30:02.348Z,99.90
2018-08-31T15:32:30.728Z,99.90
2018-08-31T15:34:59.072Z,99.90
2018-08-31T15:37:27.443Z,99.90
2018-08-31T15:39:55.808Z,99.90
2018-08-31T15:42:24.216Z,99.90
2018-08-31T15:44:52.567Z,99.90
2018-08-31T15:47:20.976Z,99.90
2018-08-31T15:49:49.451Z,99.90
2018-08-31T15:52:17.876Z,99.90
2018-08-31T15:54:46.222Z,99.90
2018-08-31T15:57:14.609Z,99.90
2018-08-31T15:59:42.986Z,99.90
2018-08-31T16:02:11.389Z,99.90
2018-08-31T16:04:39.737Z,99.90
2018-08-31T16:07:08.128Z,99.90
2018-08-31T16:09:36.462Z,99.90
2018-08-31T16:14:38.964Z,99.90
2018-08-31T16:17:07.355Z,99.90
2018-08-31T16:19:35.688Z,99.90
2018-08-31T16:22:04.101Z,99.90
2018-08-31T16:24:32.443Z,99.90
2018-08-31T16:27:00.797Z,99.90
2018-08-31T16:29:29.111Z,99.90
2018-08-31T16:31:57.452Z,99.90
2018-08-31T16:34:25.768Z,99.90
2018-08-31T16:36:54.159Z,99.90
2018-08-31T16:39:22.471Z,99.90
2018-08-31T16:41:50.832Z,99.90
2018-08-31T16:44:19.142Z,99.90
2018-08-31T16:46:47.499Z,99.90
2018-08-31T16:49:15.841Z,99.90
2018-08-31T16:51:44.200Z,99.90
2018-08-31T16:54:12.567Z,99.90
2018-08-31T16:56:40.885Z,99.90
2018-08-31T16:59:09.279Z,99.90
2018-08-31T17:01:37.593Z,99.90
2018-08-31T17:04:05.963Z,99.90
2018-08-31T17:06:34.290Z,99.90
2018-08-31T17:09:02.695Z,99.90
2018-08-31T17:11:31.020Z,99.90
2018-08-31T17:13:59.360Z,99.90
2018-08-31T17:16:27.686Z,99.90
2018-08-31T17:18:56.060Z,99.90
2018-08-31T17:21:24.403Z,99.90
2018-08-31T17:23:52.808Z,99.90
2018-08-31T17:27:26.971Z,99.90
2018-08-31T17:29:55.387Z,99.90
2018-08-31T17:32:28.960Z,99.90
2018-08-31T17:35:02.536Z,99.90
2018-08-31T17:37:32.459Z,99.90
2018-08-31T17:40:00.770Z,99.90
2018-08-31T17:42:31.216Z,99.90
2018-08-31T17:44:59.543Z,99.90
2018-08-31T17:47:27.959Z,99.90
2018-08-31T17:49:56.281Z,99.90
2018-08-31T17:52:24.620Z,99.90
2018-08-31T17:54:53.687Z,99.90
2018-08-31T17:57:22.171Z,99.90
2018-08-31T17:59:50.535Z,99.90
2018-08-31T18:02:18.855Z,99.90
2018-08-31T18:04:47.199Z,99.90
2018-08-31T18:07:15.597Z,99.90
2018-08-31T18:09:44.010Z,99.90
2018-08-31T18:12:12.303Z,99.90
2018-08-31T18:14:40.661Z,99.90
2018-08-31T18:17:09.060Z,99.90
2018-08-31T18:19:37.519Z,99.90
2018-08-31T18:22:05.840Z,99.90
2018-08-31T18:24:34.312Z,99.90
2018-08-31T18:27:02.658Z,99.90
2018-08-31T18:29:31.036Z,99.90
2018-08-31T18:31:59.356Z,99.90
2018-08-31T18:34:27.720Z,99.90
2018-08-31T18:36:56.087Z,99.90
2018-08-31T18:39:24.464Z,99.90
2018-08-31T18:41:52.781Z,99.90
2018-08-31T18:44:21.128Z,99.90
2018-08-31T18:46:49.476Z,99.90
2018-08-31T18:49:17.803Z,99.90
2018-08-31T18:51:46.113Z,99.90
2018-08-31T18:54:14.468Z,99.90
2018-08-31T18:56:42.776Z,99.90
2018-08-31T18:59:11.129Z,99.90
2018-08-31T19:01:39.448Z,99.90
2018-08-31T19:04:07.812Z,99.90
2018-08-31T19:06:36.135Z,99.90
2018-08-31T19:09:05.764Z,99.90
2018-08-31T19:11:34.116Z,99.90
2018-08-31T19:14:02.508Z,99.90
2018-08-31T19:16:30.832Z,99.90
2018-08-31T19:18:59.187Z,99.90
2018-08-31T19:21:27.556Z,99.90
2018-08-31T19:23:55.948Z,99.90
2018-08-31T19:26:24.264Z,99.90
2018-08-31T19:28:52.617Z,99.90
2018-08-31T19:31:21.052Z,99.90
2018-08-31T19:33:49.349Z,99.90
2018-08-31T19:36:17.725Z,99.90
2018-08-31T19:38:46.047Z,99.90
2018-08-31T19:41:14.523Z,99.90
2018-08-31T19:43:42.836Z,99.90
2018-08-31T19:46:11.196Z,99.90
2018-08-31T19:48:39.548Z,99.90
2018-08-31T19:51:07.895Z,99.90
2018-08-31T19:53:36.234Z,99.90
2018-08-31T19:56:04.697Z,99.90
2018-08-31T19:58:33.045Z,99.90
2018-08-31T20:01:01.416Z,99.90
2018-08-31T20:03:29.751Z,99.90
2018-08-31T20:05:58.100Z,99.90
2018-08-31T20:08:26.432Z,99.90
2018-08-31T20:10:54.820Z,99.90
2018-08-31T20:13:23.183Z,99.90
2018-08-31T20:15:51.516Z,99.90
2018-08-31T20:18:19.831Z,99.90
2018-08-31T20:20:48.211Z,99.90
2018-08-31T20:23:16.585Z,99.90
2018-08-31T20:25:44.996Z,99.90
2018-08-31T20:28:13.325Z,99.90
2018-08-31T20:30:41.675Z,99.90
2018-08-31T20:33:10.004Z,99.90
2018-08-31T20:35:38.388Z,99.90
2018-08-31T20:38:06.704Z,99.90
2018-08-31T20:40:35.047Z,99.90
2018-08-31T20:43:03.372Z,99.90
2018-08-31T20:45:31.741Z,99.90
2018-08-31T20:48:00.066Z,99.90
2018-08-31T20:50:28.481Z,99.90
2018-08-31T20:52:56.843Z,99.90
2018-08-31T20:55:25.199Z,99.90
2018-08-31T20:57:53.565Z,99.90
2018-08-31T21:00:21.916Z,99.90
2018-08-31T21:02:50.235Z,99.90
2018-08-31T21:05:18.599Z,99.90
2018-08-31T21:07:46.980Z,99.90
2018-08-31T21:10:15.344Z,99.90
2018-08-31T21:12:43.660Z,99.90
2018-08-31T21:15:12.051Z,99.90
2018-08-31T21:17:40.420Z,99.90
2018-08-31T21:20:08.747Z,99.90
2018-08-31T21:22:37.119Z,99.90
2018-08-31T21:25:05.521Z,99.90
2018-08-31T21:27:33.917Z,99.90
2018-08-31T21:30:02.268Z,99.90
2018-08-31T21:32:30.684Z,99.90
2018-08-31T21:34:59.050Z,99.90
2018-08-31T21:37:27.475Z,99.90
2018-08-31T21:39:55.820Z,99.90
2018-08-31T21:42:24.226Z,99.90
2018-08-31T21:44:52.568Z,99.90
2018-08-31T21:47:20.960Z,99.90
2018-08-31T21:49:49.296Z,99.90
2018-08-31T21:52:17.728Z,99.90
2018-08-31T21:54:46.092Z,99.90
2018-08-31T21:57:14.484Z,99.90
2018-08-31T21:59:42.839Z,99.90
2018-08-31T22:02:11.233Z,99.90
2018-08-31T22:04:39.575Z,99.90
2018-08-31T22:07:07.951Z,99.90
2018-08-31T22:09:36.291Z,99.90
2018-08-31T22:12:04.780Z,99.90
2018-08-31T22:14:33.499Z,99.90
2018-08-31T22:17:01.982Z,99.90
2018-08-31T22:19:30.362Z,99.90
2018-08-31T22:21:58.727Z,99.90
2018-08-31T22:24:27.092Z,99.90
2018-08-31T22:26:55.444Z,99.90
2018-08-31T22:29:23.776Z,99.90
2018-08-31T22:31:52.136Z,99.90
2018-08-31T22:34:20.511Z,99.90
2018-08-31T22:36:48.839Z,99.90
2018-08-31T22:39:17.159Z,99.90
2018-08-31T22:41:45.524Z,99.90
2018-08-31T22:44:13.832Z,99.90
2018-08-31T22:46:42.188Z,99.90
2018-08-31T22:49:10.508Z,99.90
2018-08-31T22:51:38.872Z,99.90
2018-08-31T22:54:07.180Z,99.90
2018-08-31T22:56:35.532Z,99.90
2018-08-31T22:59:03.840Z,99.90
2018-08-31T23:01:32.188Z,99.90
2018-08-31T23:04:00.508Z,99.90
2018-08-31T23:06:28.859Z,99.90
2018-08-31T23:08:57.184Z,99.90
2018-08-31T23:11:25.539Z,99.90
2018-08-31T23:13:53.953Z,99.90
2018-08-31T23:16:22.220Z,99.90
2018-08-31T23:18:50.569Z,99.90
2018-08-31T23:21:18.880Z,99.90
2018-08-31T23:23:48.927Z,99.90
2018-08-31T23:26:17.795Z,99.90
2018-08-31T23:28:46.164Z,99.90
2018-08-31T23:31:14.484Z,99.90
2018-08-31T23:33:42.836Z,99.90
2018-08-31T23:36:11.147Z,99.90
2018-08-31T23:38:39.493Z,99.90
2018-08-31T23:41:08.072Z,99.90
2018-08-31T23:43:36.420Z,99.90
2018-08-31T23:46:04.741Z,99.90
2018-08-31T23:48:33.096Z,99.90
2018-08-31T23:51:01.460Z,99.90
2018-08-31T23:53:29.850Z,99.90
2018-08-31T23:55:58.189Z,99.90
2018-08-31T23:58:26.548Z,99.90
